Time;durP1;ratioP1;P1;durP2;ratioP2;P2;SDS_P1;SDS_P2;PMS_P1;PMS_P2;Temp;Humidity;BMP_temperature;BMP_pressure;BME280_temperature;BME280_humidity;BME280_pressure;Samples;Min_cycle;Max_cycle;Signal;HPM_P1;HPM_P2
2021/09/04 19:29:36;;;;;;;12.43;8.23;;;23.00;99.90;;;;;;5094665;27;20554;-80
2021/09/04 19:32:03;;;;;;;11.80;8.47;;;22.50;99.90;;;;;;5094222;28;20446;-78
2021/09/04 19:34:30;;;;;;;10.53;8.53;;;22.10;99.90;;;;;;5092177;28;20473;-78
2021/09/04 19:36:56;;;;;;;14.30;8.50;;;21.60;99.90;;;;;;5089831;28;20434;-77
2021/09/04 19:39:23;;;;;;;11.13;8.97;;;21.20;99.90;;;;;;5090931;28;20424;-79
2021/09/04 19:41:50;;;;;;;13.57;9.93;;;20.80;99.90;;;;;;5094587;28;20542;-78
2021/09/04 19:44:17;;;;;;;13.57;8.77;;;20.50;99.90;;;;;;5090430;28;20474;-78
2021/09/04 19:46:46;;;;;;;11.60;8.90;;;20.40;99.90;;;;;;5090263;28;20447;-78
2021/09/04 19:49:13;;;;;;;12.30;8.30;;;20.20;99.90;;;;;;5089907;28;20518;-78
2021/09/04 19:51:40;;;;;;;10.90;8.70;;;20.10;99.90;;;;;;5090382;28;20449;-78
2021/09/04 19:54:07;;;;;;;10.70;7.83;;;20.00;99.90;;;;;;5091840;28;20458;-78
2021/09/04 19:56:34;;;;;;;11.23;8.00;;;19.90;99.90;;;;;;5091900;28;20820;-79
2021/09/04 19:59:01;;;;;;;10.00;8.07;;;19.80;99.90;;;;;;5092968;28;20894;-79
2021/09/04 20:01:28;;;;;;;9.80;7.43;;;19.70;99.90;;;;;;5091331;28;20434;-78
2021/09/04 20:03:57;;;;;;;8.97;7.40;;;19.50;99.90;;;;;;5091179;28;20429;-77
2021/09/04 20:06:24;;;;;;;12.37;8.23;;;19.50;99.90;;;;;;5092225;28;20959;-78
2021/09/04 20:08:51;;;;;;;9.50;7.30;;;19.40;99.90;;;;;;5093732;28;20585;-79
2021/09/04 20:11:18;;;;;;;9.30;7.40;;;19.40;99.90;;;;;;5093789;28;20756;-78
2021/09/04 20:13:45;;;;;;;11.60;8.47;;;19.30;99.90;;;;;;5092745;28;20446;-78
2021/09/04 20:16:13;;;;;;;10.73;9.13;;;19.10;99.90;;;;;;5092727;28;20498;-78
2021/09/04 20:18:39;;;;;;;9.57;7.90;;;19.00;99.90;;;;;;5095518;28;20533;-78
2021/09/04 20:21:08;;;;;;;14.27;9.10;;;18.90;99.90;;;;;;5093854;28;20463;-78
2021/09/04 20:23:35;;;;;;;10.53;8.33;;;18.90;99.90;;;;;;5091042;28;20867;-79
2021/09/04 20:26:03;;;;;;;11.17;9.00;;;18.90;99.90;;;;;;5093444;28;20482;-78
2021/09/04 20:28:30;;;;;;;11.40;9.17;;;18.80;99.90;;;;;;5092296;28;20578;-77
2021/09/04 20:30:57;;;;;;;12.33;8.93;;;18.70;99.90;;;;;;5091381;28;20428;-78
2021/09/04 20:33:24;;;;;;;11.17;7.90;;;18.70;99.90;;;;;;5093521;28;20537;-79
2021/09/04 20:35:53;;;;;;;12.27;8.00;;;18.70;99.90;;;;;;5094458;28;20842;-79
2021/09/04 20:38:36;;;;;;;11.80;9.40;;;18.70;99.90;;;;;;5094542;28;20453;-79
2021/09/04 20:41:03;;;;;;;18.70;8.60;;;18.70;99.90;;;;;;5084478;28;20432;-79
2021/09/04 20:43:30;;;;;;;11.20;8.40;;;18.60;99.90;;;;;;5080023;28;20533;-78
2021/09/04 20:45:57;;;;;;;10.20;9.00;;;18.50;99.90;;;;;;5078018;28;20599;-79
2021/09/04 20:48:26;;;;;;;12.10;8.80;;;18.50;99.90;;;;;;5080772;28;20845;-81
2021/09/04 20:50:53;;;;;;;12.37;8.50;;;18.50;99.90;;;;;;5079668;28;20526;-80
2021/09/04 20:53:21;;;;;;;11.07;8.00;;;18.50;99.90;;;;;;5081291;28;20968;-79
2021/09/04 20:55:48;;;;;;;16.00;8.00;;;18.50;99.90;;;;;;5084929;28;20567;-78
2021/09/04 20:58:15;;;;;;;11.50;8.07;;;18.50;99.90;;;;;;5081470;28;20452;-80
2021/09/04 21:00:42;;;;;;;11.60;8.17;;;18.50;99.90;;;;;;5080835;28;20994;-79
2021/09/04 21:03:09;;;;;;;11.20;8.50;;;18.40;99.90;;;;;;5079789;28;20450;-79
2021/09/04 21:05:36;;;;;;;15.10;7.80;;;18.50;99.90;;;;;;5079216;28;20458;-79
2021/09/04 21:08:17;;;;;;;11.70;8.53;;;18.60;99.90;;;;;;5080271;22;20516;-88
2021/09/04 21:14:50;;;;;;;11.13;8.33;;;18.50;99.90;;;;;;5027406;28;20468;-83
2021/09/04 21:21:01;;;;;;;12.67;7.73;;;18.30;99.90;;;;;;4973615;28;20444;-81
2021/09/04 21:23:28;;;;;;;10.40;7.60;;;18.30;99.90;;;;;;5033557;28;20534;-80
2021/09/04 21:25:54;;;;;;;11.93;8.50;;;18.30;99.90;;;;;;5049036;28;21043;-80
2021/09/04 21:28:24;;;;;;;11.73;8.43;;;18.20;99.90;;;;;;5053293;28;20567;-79
2021/09/04 21:30:52;;;;;;;11.60;9.00;;;18.20;99.90;;;;;;5049596;28;20523;-80
2021/09/04 21:33:19;;;;;;;13.50;8.27;;;18.20;99.90;;;;;;5043345;28;20816;-80
2021/09/04 21:35:46;;;;;;;10.83;8.60;;;18.20;99.90;;;;;;5042146;28;20444;-80
2021/09/04 21:38:13;;;;;;;15.10;8.93;;;18.20;99.90;;;;;;5041785;28;20535;-81
2021/09/04 21:40:40;;;;;;;10.33;8.60;;;18.20;99.90;;;;;;5041230;28;20454;-80
2021/09/04 21:43:07;;;;;;;11.60;9.50;;;18.20;99.90;;;;;;5040797;28;20891;-81
2021/09/04 21:45:33;;;;;;;15.93;9.90;;;18.10;99.90;;;;;;5041396;28;20433;-80
2021/09/04 21:48:02;;;;;;;13.93;10.40;;;18.00;99.90;;;;;;5042446;28;20487;-81
2021/09/04 21:50:34;;;;;;;11.67;8.77;;;18.00;99.90;;;;;;5047637;28;20498;-81
2021/09/04 21:53:09;;;;;;;10.40;9.10;;;17.90;99.90;;;;;;5050196;28;20443;-79
2021/09/04 21:55:36;;;;;;;13.00;9.47;;;17.90;99.90;;;;;;5049193;28;20410;-80
2021/09/04 21:58:03;;;;;;;10.97;9.60;;;17.80;99.90;;;;;;5043725;28;20561;-80
2021/09/04 22:00:32;;;;;;;11.80;8.60;;;17.70;99.90;;;;;;5040867;28;20459;-78
2021/09/04 22:02:59;;;;;;;12.27;10.43;;;17.60;99.90;;;;;;5040697;28;20422;-80
2021/09/04 22:05:27;;;;;;;12.40;10.00;;;17.50;99.90;;;;;;5040631;28;20475;-81
2021/09/04 22:07:54;;;;;;;20.93;10.23;;;17.50;99.90;;;;;;5043548;28;20483;-81
2021/09/04 22:10:21;;;;;;;12.03;9.33;;;17.40;99.90;;;;;;5042206;28;20823;-81
2021/09/04 22:12:48;;;;;;;16.17;9.37;;;17.40;99.90;;;;;;5041869;28;20542;-81
2021/09/04 22:15:15;;;;;;;11.90;9.10;;;17.40;99.90;;;;;;5041962;28;20436;-80
2021/09/04 22:17:45;;;;;;;13.20;8.73;;;17.40;99.90;;;;;;5041064;28;20901;-81
2021/09/04 22:20:14;;;;;;;11.00;8.70;;;17.60;99.90;;;;;;5044765;28;20895;-81
2021/09/04 22:22:44;;;;;;;14.97;9.23;;;17.50;99.90;;;;;;5041135;28;20458;-81
2021/09/04 22:25:11;;;;;;;13.47;8.83;;;17.40;99.90;;;;;;5040340;28;20455;-81
2021/09/04 22:27:39;;;;;;;12.33;9.70;;;17.30;99.90;;;;;;5041464;28;20497;-81
2021/09/04 22:30:07;;;;;;;14.67;11.60;;;17.20;99.90;;;;;;5039933;28;20493;-80
2021/09/04 22:32:34;;;;;;;12.90;9.07;;;17.10;99.90;;;;;;5039764;28;20526;-80
2021/09/04 22:35:14;;;;;;;11.20;9.00;;;17.10;99.90;;;;;;5040112;28;20443;-80
2021/09/04 22:40:27;;;;;;;11.10;8.50;;;17.10;99.90;;;;;;5036942;28;20376;-79
2021/09/04 22:42:54;;;;;;;12.37;9.30;;;17.00;99.90;;;;;;5037204;28;20458;-81
2021/09/04 22:45:21;;;;;;;11.60;9.07;;;17.00;99.90;;;;;;5037180;28;20455;-81
2021/09/04 22:47:48;;;;;;;12.80;8.97;;;17.00;99.90;;;;;;5039639;28;20993;-79
2021/09/04 22:50:15;;;;;;;12.00;8.80;;;16.90;99.90;;;;;;5036077;28;20566;-79
2021/09/04 22:52:43;;;;;;;12.80;8.53;;;16.90;99.90;;;;;;5035879;28;20434;-80
2021/09/04 22:55:11;;;;;;;12.57;8.30;;;16.80;99.90;;;;;;5035641;28;20436;-80
2021/09/04 22:57:38;;;;;;;11.10;8.27;;;16.90;99.90;;;;;;5036118;28;20783;-80
2021/09/04 23:00:06;;;;;;;11.13;8.97;;;16.90;99.90;;;;;;5041179;28;20627;-79
2021/09/04 23:02:33;;;;;;;13.57;9.10;;;16.90;99.90;;;;;;5047578;28;20499;-79
2021/09/04 23:05:00;;;;;;;11.00;8.27;;;17.00;99.90;;;;;;5044138;28;20453;-80
2021/09/04 23:07:27;;;;;;;11.67;9.23;;;17.10;99.90;;;;;;5037586;28;20486;-80
2021/09/04 23:09:55;;;;;;;13.30;10.07;;;17.10;99.90;;;;;;5035402;28;20536;-81
2021/09/04 23:12:23;;;;;;;13.80;9.70;;;17.00;99.90;;;;;;5036083;28;20534;-80
2021/09/04 23:14:50;;;;;;;11.47;8.70;;;16.90;99.90;;;;;;5036032;28;20524;-80
2021/09/04 23:17:17;;;;;;;10.03;8.40;;;16.90;99.90;;;;;;5035382;28;20489;-80
2021/09/04 23:19:43;;;;;;;12.63;8.87;;;16.90;99.90;;;;;;5035501;28;20452;-81
2021/09/04 23:22:10;;;;;;;13.80;8.60;;;16.90;99.90;;;;;;5035800;28;20436;-81
2021/09/04 23:24:39;;;;;;;10.67;8.80;;;16.90;99.90;;;;;;5035288;28;20447;-81
2021/09/04 23:27:08;;;;;;;11.57;8.27;;;16.90;99.90;;;;;;5036322;28;20535;-81
2021/09/04 23:29:35;;;;;;;12.47;8.67;;;16.80;99.90;;;;;;5040227;28;20551;-80
2021/09/04 23:32:01;;;;;;;11.27;7.97;;;16.80;99.90;;;;;;5039603;28;20454;-81
2021/09/04 23:34:28;;;;;;;10.33;7.57;;;16.70;99.90;;;;;;5036483;28;20459;-81
2021/09/04 23:36:55;;;;;;;17.53;8.20;;;16.70;99.90;;;;;;5038990;28;20477;-80
2021/09/04 23:39:22;;;;;;;11.23;8.00;;;16.90;99.90;;;;;;5044787;28;20447;-78
2021/09/04 23:41:49;;;;;;;10.30;7.93;;;16.90;99.90;;;;;;5040996;28;20560;-81
2021/09/04 23:44:17;;;;;;;12.60;8.27;;;16.90;99.90;;;;;;5035543;28;20435;-81
2021/09/04 23:46:44;;;;;;;12.10;9.23;;;16.90;99.90;;;;;;5035698;28;20453;-81
2021/09/04 23:49:11;;;;;;;13.87;8.67;;;16.90;99.90;;;;;;5040923;28;20915;-79
2021/09/04 23:51:37;;;;;;;9.70;7.80;;;16.80;99.90;;;;;;5043042;28;20451;-80
2021/09/04 23:54:04;;;;;;;10.93;8.90;;;16.90;99.90;;;;;;5038700;28;21026;-81
2021/09/04 23:56:31;;;;;;;10.80;8.93;;;16.80;99.90;;;;;;5035518;28;20477;-81
2021/09/04 23:58:58;;;;;;;11.43;8.80;;;16.70;99.90;;;;;;5035516;28;20446;-80
